KSTJ/STJ METAR and TAF weather

Enter ICAO airport designator
Station Type Date Time Source
KSTJ METAR 2020/01/20 21:53 UTC NOAA

KSTJ 202153Z 36008KT 10SM CLR M11/M17 A3066 RMK AO2 SLP398 T11111172


Station Type Date Time Source
KSTJ Decoded METAR 2020/01/20 21:53 UTC NOAA

ROSECRANS MEMORIAL AIRPORT, MO, United States (KSTJ) 39-46N 94-55W 247M
Jan 20, 2020 - 04:53 PM EST / 2020.01.20 2153 UTC
Wind: from the N (360 degrees) at 9 MPH (8 KT):0
Visibility: 10 mile(s):0
Sky conditions: clear
Temperature: 12.0 F (-11.1 C)
Windchill: 0 F (-18 C):1
Dew Point: 1.0 F (-17.2 C)
Relative Humidity: 60%
Pressure (altimeter): 30.66 in. Hg (1038 hPa)
ob: KSTJ 202153Z 36008KT 10SM CLR M11/M17 A3066 RMK AO2 SLP398 T11111172
cycle: 22

Station Type Date Time Source
KSTJ TAF 2020/01/20 19:59 UTC NOAA

TAF
AMD KSTJ 201859Z 2019/2118 02006KT P6SM FEW080
FM210300 05005KT P6SM FEW250
FM211200 14008KT P6SM FEW250

Example: see airport list